createdAt,value
2022-07-30T00:00:41.792Z,8.90
2022-07-30T00:03:10.024Z,8.03
2022-07-30T00:05:38.199Z,7.20
2022-07-30T00:08:06.680Z,8.30
2022-07-30T00:10:34.905Z,8.60
2022-07-30T00:13:04.531Z,7.60
2022-07-30T00:15:32.700Z,7.40
2022-07-30T00:18:00.859Z,7.87
2022-07-30T00:20:29.219Z,7.80
2022-07-30T00:22:57.806Z,7.70
2022-07-30T00:25:26.471Z,7.37
2022-07-30T00:27:57.732Z,7.40
2022-07-30T00:30:27.637Z,8.13
2022-07-30T00:32:55.861Z,6.90
2022-07-30T00:35:24.177Z,7.33
2022-07-30T00:37:58.626Z,7.60
2022-07-30T00:40:27.062Z,8.37
2022-07-30T00:42:55.226Z,7.40
2022-07-30T00:45:23.539Z,7.33
2022-07-30T00:47:53.090Z,7.70
2022-07-30T00:50:21.703Z,7.30
2022-07-30T00:52:52.734Z,7.97
2022-07-30T00:55:20.899Z,8.77
2022-07-30T00:57:49.027Z,9.60
2022-07-30T01:00:19.888Z,10.67
2022-07-30T01:02:48.219Z,10.40
2022-07-30T01:05:18.066Z,11.00
2022-07-30T01:07:46.702Z,10.93
2022-07-30T01:10:16.698Z,11.57
2022-07-30T01:12:45.894Z,12.43
2022-07-30T01:15:14.486Z,11.87
2022-07-30T01:17:42.868Z,10.97
2022-07-30T01:20:18.799Z,11.63
2022-07-30T01:23:00.657Z,11.30
2022-07-30T01:25:47.627Z,11.23
2022-07-30T01:28:21.033Z,11.30
2022-07-30T01:30:50.707Z,14.00
2022-07-30T01:33:20.095Z,12.50
2022-07-30T01:35:49.794Z,12.43
2022-07-30T01:38:23.049Z,12.83
2022-07-30T01:40:54.638Z,13.30
2022-07-30T01:43:26.425Z,11.30
2022-07-30T01:45:55.448Z,12.47
2022-07-30T01:48:26.797Z,11.73
2022-07-30T01:50:59.905Z,12.90
2022-07-30T01:53:31.103Z,13.43
2022-07-30T01:56:03.167Z,11.83
2022-07-30T01:58:37.693Z,11.37
2022-07-30T02:01:07.388Z,12.53
2022-07-30T02:03:36.685Z,12.17
2022-07-30T02:06:09.397Z,11.93
2022-07-30T02:08:42.976Z,11.90
2022-07-30T02:11:16.390Z,11.50
2022-07-30T02:13:53.811Z,11.37
2022-07-30T02:16:29.488Z,12.33
2022-07-30T02:19:06.127Z,11.27
2022-07-30T02:21:40.195Z,10.07
2022-07-30T02:24:23.579Z,11.00
2022-07-30T02:26:58.476Z,11.43
2022-07-30T02:29:26.965Z,11.13
2022-07-30T02:31:57.830Z,11.73
2022-07-30T02:34:26.964Z,10.67
2022-07-30T02:36:56.972Z,9.90
2022-07-30T02:39:27.162Z,11.17
2022-07-30T02:42:00.286Z,10.27
2022-07-30T02:44:34.381Z,10.67
2022-07-30T02:47:04.730Z,12.47
2022-07-30T02:49:38.048Z,10.33
2022-07-30T02:52:12.151Z,11.23
2022-07-30T02:54:43.582Z,11.93
2022-07-30T02:57:15.346Z,11.67
2022-07-30T02:59:47.221Z,12.23
2022-07-30T03:02:15.714Z,12.23
2022-07-30T03:04:45.453Z,14.40
2022-07-30T03:07:18.026Z,14.50
2022-07-30T03:09:52.089Z,17.00
2022-07-30T03:12:23.867Z,16.10
2022-07-30T03:14:52.790Z,17.00
2022-07-30T03:17:23.201Z,13.87
2022-07-30T03:19:52.524Z,13.63
2022-07-30T03:22:22.779Z,16.57
2022-07-30T03:24:51.784Z,15.50
2022-07-30T03:27:23.595Z,16.23
2022-07-30T03:29:55.590Z,16.13
2022-07-30T03:32:25.962Z,15.10
2022-07-30T03:34:56.084Z,14.97
2022-07-30T03:37:26.326Z,17.20
2022-07-30T03:39:55.293Z,15.23
2022-07-30T03:42:25.703Z,14.57
2022-07-30T03:44:54.763Z,16.20
2022-07-30T03:47:24.509Z,16.80
2022-07-30T03:49:53.487Z,17.23
2022-07-30T03:52:22.059Z,18.67
2022-07-30T03:54:51.348Z,19.73
2022-07-30T03:57:20.563Z,19.57
2022-07-30T03:59:51.724Z,20.87
2022-07-30T04:02:20.060Z,20.60
2022-07-30T04:04:48.219Z,22.63
2022-07-30T04:07:16.531Z,23.27
2022-07-30T04:09:44.774Z,22.53
2022-07-30T04:12:13.774Z,23.20
2022-07-30T04:14:45.277Z,22.43
2022-07-30T04:17:22.872Z,22.13
2022-07-30T04:19:54.875Z,22.00
2022-07-30T04:22:28.561Z,21.43
2022-07-30T04:24:57.738Z,21.80
2022-07-30T04:27:27.074Z,20.77
2022-07-30T04:29:56.018Z,22.10
2022-07-30T04:32:27.406Z,22.10
2022-07-30T04:34:57.338Z,22.87
2022-07-30T04:37:28.107Z,21.60
2022-07-30T04:40:00.474Z,20.30
2022-07-30T04:42:29.944Z,20.03
2022-07-30T04:44:58.965Z,20.80
2022-07-30T04:47:28.472Z,20.10
2022-07-30T04:49:57.896Z,21.00
2022-07-30T04:52:26.546Z,18.57
2022-07-30T04:54:58.040Z,18.00
2022-07-30T04:57:27.194Z,18.83
2022-07-30T04:59:55.613Z,18.33
2022-07-30T05:02:28.445Z,19.17
2022-07-30T05:04:57.636Z,18.93
2022-07-30T05:07:28.347Z,19.47
2022-07-30T05:09:56.461Z,18.47
2022-07-30T05:12:34.248Z,17.97
2022-07-30T05:15:02.389Z,18.20
2022-07-30T05:17:32.062Z,18.03
2022-07-30T05:20:02.038Z,18.90
2022-07-30T05:22:30.989Z,17.23
2022-07-30T05:24:59.195Z,17.93
2022-07-30T05:27:27.372Z,18.63
2022-07-30T05:29:55.589Z,19.67
2022-07-30T05:32:25.462Z,18.20
2022-07-30T05:34:58.529Z,18.60
2022-07-30T05:37:26.736Z,18.37
2022-07-30T05:39:58.892Z,18.47
2022-07-30T05:42:31.763Z,17.50
2022-07-30T05:45:00.257Z,16.67
2022-07-30T05:47:28.827Z,17.07
2022-07-30T05:50:01.566Z,17.03
2022-07-30T05:52:32.809Z,17.20
2022-07-30T05:55:00.977Z,17.03
2022-07-30T05:57:29.128Z,17.37
2022-07-30T05:59:57.285Z,16.80
2022-07-30T06:02:25.485Z,17.53
2022-07-30T06:04:53.958Z,17.70
2022-07-30T06:07:23.642Z,18.10
2022-07-30T06:09:51.808Z,16.67
2022-07-30T06:12:20.022Z,18.40
2022-07-30T06:14:48.158Z,17.90
2022-07-30T06:17:16.364Z,18.37
2022-07-30T06:19:44.567Z,16.33
2022-07-30T06:22:12.666Z,17.53
2022-07-30T06:24:44.715Z,17.33
2022-07-30T06:27:12.963Z,15.87
2022-07-30T06:29:41.076Z,17.13
2022-07-30T06:32:10.510Z,16.40
2022-07-30T06:34:38.733Z,17.37
2022-07-30T06:37:06.830Z,16.23
2022-07-30T06:39:57.512Z,16.60
2022-07-30T06:42:24.552Z,16.20
2022-07-30T06:44:52.700Z,16.67
2022-07-30T06:47:28.483Z,17.37
2022-07-30T06:49:56.851Z,15.83
2022-07-30T06:52:25.715Z,16.53
2022-07-30T06:54:54.299Z,16.43
2022-07-30T06:57:23.791Z,16.87
2022-07-30T06:59:56.677Z,15.60
2022-07-30T07:02:25.781Z,14.93
2022-07-30T07:04:54.735Z,15.33
2022-07-30T07:07:37.435Z,15.73
2022-07-30T07:10:10.582Z,15.77
2022-07-30T07:12:40.262Z,15.33
2022-07-30T07:15:10.294Z,14.67
2022-07-30T07:17:38.488Z,15.13
2022-07-30T07:20:07.986Z,15.00
2022-07-30T07:22:36.289Z,14.43
2022-07-30T07:25:05.020Z,13.93
2022-07-30T07:27:33.338Z,15.10
2022-07-30T07:30:06.014Z,13.60
2022-07-30T07:32:35.067Z,13.87
2022-07-30T07:35:03.501Z,13.17
2022-07-30T07:37:31.764Z,13.40
2022-07-30T07:40:00.112Z,13.00
2022-07-30T07:42:28.350Z,12.93
2022-07-30T07:44:56.484Z,12.70
2022-07-30T07:47:26.026Z,12.23
2022-07-30T07:49:56.744Z,12.00
2022-07-30T07:52:24.976Z,12.17
2022-07-30T07:54:53.099Z,12.07
2022-07-30T07:57:21.692Z,11.10
2022-07-30T07:59:51.584Z,10.80
2022-07-30T08:02:19.735Z,10.63
2022-07-30T08:04:49.308Z,10.53
2022-07-30T08:07:17.496Z,9.83
2022-07-30T08:09:45.876Z,10.13
2022-07-30T08:12:14.669Z,9.37
2022-07-30T08:14:42.937Z,9.00
2022-07-30T08:17:11.113Z,9.20
2022-07-30T08:19:39.380Z,8.93
2022-07-30T08:22:10.691Z,8.93
2022-07-30T08:24:38.852Z,8.77
2022-07-30T08:27:09.286Z,8.90
2022-07-30T08:29:37.802Z,9.18
2022-07-30T08:32:06.723Z,9.73
2022-07-30T08:34:34.904Z,9.20
2022-07-30T08:37:03.545Z,9.73
2022-07-30T08:39:33.074Z,8.38
2022-07-30T08:42:05.154Z,9.15
2022-07-30T08:44:35.286Z,9.32
2022-07-30T08:47:04.709Z,8.55
2022-07-30T08:49:33.156Z,9.02
2022-07-30T08:52:01.713Z,8.27
2022-07-30T08:54:30.331Z,7.35
2022-07-30T08:57:01.258Z,7.30
2022-07-30T08:59:59.907Z,7.88
2022-07-30T09:02:18.995Z,7.22
2022-07-30T09:04:56.020Z,6.88
2022-07-30T09:07:24.426Z,7.32
2022-07-30T09:09:53.106Z,6.80
2022-07-30T09:12:40.974Z,8.10
2022-07-30T09:15:12.753Z,7.30
2022-07-30T09:17:55.649Z,7.60
2022-07-30T09:20:27.331Z,7.85
2022-07-30T09:22:58.733Z,7.88
2022-07-30T09:25:39.196Z,7.53
2022-07-30T09:28:16.160Z,6.90
2022-07-30T09:30:48.714Z,7.43
2022-07-30T09:33:17.281Z,6.30
2022-07-30T09:35:46.120Z,5.93
2022-07-30T09:38:17.409Z,6.72
2022-07-30T09:40:57.408Z,6.47
2022-07-30T09:43:28.144Z,6.25
2022-07-30T09:46:00.487Z,6.47
2022-07-30T09:48:29.516Z,6.47
2022-07-30T09:50:57.850Z,7.15
2022-07-30T09:53:29.043Z,6.60
2022-07-30T09:55:59.271Z,6.35
2022-07-30T09:58:40.544Z,6.75
2022-07-30T10:01:13.834Z,6.50
2022-07-30T10:03:43.994Z,6.78
2022-07-30T10:06:15.389Z,6.78
2022-07-30T10:08:50.065Z,6.20
2022-07-30T10:11:23.763Z,5.85
2022-07-30T10:13:59.150Z,5.38
2022-07-30T10:16:29.609Z,6.47
2022-07-30T10:19:01.117Z,6.47
2022-07-30T10:21:32.458Z,6.05
2022-07-30T10:24:01.355Z,6.70
2022-07-30T10:26:34.697Z,5.50
2022-07-30T10:29:04.995Z,5.13
2022-07-30T10:31:49.332Z,4.38
2022-07-30T10:34:23.584Z,5.13
2022-07-30T10:37:01.942Z,5.00
2022-07-30T10:39:38.682Z,4.72
2022-07-30T10:42:20.572Z,4.88
2022-07-30T10:45:17.233Z,4.88
2022-07-30T10:47:48.902Z,4.60
2022-07-30T10:50:22.231Z,4.50
2022-07-30T10:52:54.031Z,4.35
2022-07-30T10:55:36.911Z,4.43
2022-07-30T10:58:11.475Z,4.30
2022-07-30T11:01:04.996Z,3.85
2022-07-30T11:04:25.790Z,4.00
2022-07-30T11:07:31.619Z,4.28
2022-07-30T11:10:05.927Z,4.30
2022-07-30T11:12:55.717Z,3.92
2022-07-30T11:15:24.868Z,3.70
2022-07-30T11:18:11.397Z,4.00
2022-07-30T11:20:48.765Z,3.90
2022-07-30T11:23:39.447Z,4.10
2022-07-30T11:26:14.421Z,4.10
2022-07-30T11:28:49.226Z,3.95
2022-07-30T11:31:55.190Z,3.97
2022-07-30T11:34:31.224Z,3.85
2022-07-30T11:37:31.740Z,3.25
2022-07-30T11:40:11.912Z,3.60
2022-07-30T11:42:42.564Z,3.13
2022-07-30T11:45:30.235Z,3.40
2022-07-30T11:48:05.130Z,3.95
2022-07-30T11:50:35.793Z,3.65
2022-07-30T11:53:07.701Z,3.70
2022-07-30T11:55:40.769Z,3.95
2022-07-30T11:58:12.061Z,3.35
2022-07-30T12:00:42.586Z,3.42
2022-07-30T12:03:13.126Z,3.60
2022-07-30T12:05:42.204Z,3.33
2022-07-30T12:08:35.384Z,3.70
2022-07-30T12:11:02.686Z,3.13
2022-07-30T12:13:45.792Z,3.22
2022-07-30T12:16:18.069Z,3.10
2022-07-30T12:18:47.461Z,3.00
2022-07-30T12:21:17.230Z,3.22
2022-07-30T12:23:59.122Z,2.90
2022-07-30T12:26:29.935Z,3.00
2022-07-30T12:29:00.573Z,2.95
2022-07-30T12:31:29.783Z,3.25
2022-07-30T12:34:00.702Z,2.97
2022-07-30T12:36:32.579Z,3.35
2022-07-30T12:39:05.005Z,3.30
2022-07-30T12:41:44.462Z,2.67
2022-07-30T12:44:39.462Z,2.90
2022-07-30T12:47:20.134Z,3.05
2022-07-30T12:49:50.493Z,2.70
2022-07-30T12:52:28.166Z,2.60
2022-07-30T12:55:08.929Z,2.95
2022-07-30T12:58:00.735Z,2.50
2022-07-30T13:00:36.074Z,2.78
2022-07-30T13:03:21.204Z,2.88
2022-07-30T13:05:51.510Z,2.70
2022-07-30T13:08:47.060Z,2.13
2022-07-30T13:11:17.865Z,2.55
2022-07-30T13:13:46.248Z,2.28
2022-07-30T13:16:15.216Z,2.00
2022-07-30T13:18:43.807Z,2.22
2022-07-30T13:21:12.604Z,1.95
2022-07-30T13:23:44.550Z,1.88
2022-07-30T13:26:12.833Z,2.03
2022-07-30T13:28:42.442Z,2.00
2022-07-30T13:31:10.921Z,1.88
2022-07-30T13:33:39.641Z,2.28
2022-07-30T13:36:09.137Z,2.20
2022-07-30T13:38:37.403Z,2.17
2022-07-30T13:41:06.115Z,2.03
2022-07-30T13:43:34.454Z,1.90
2022-07-30T13:46:08.217Z,2.38
2022-07-30T13:48:36.764Z,1.58
2022-07-30T13:51:06.256Z,2.10
2022-07-30T13:53:36.208Z,1.90
2022-07-30T13:56:12.375Z,2.03
2022-07-30T13:58:41.628Z,2.40
2022-07-30T14:01:17.958Z,2.10
2022-07-30T14:03:50.646Z,2.00
2022-07-30T14:06:19.438Z,1.88
2022-07-30T14:08:47.688Z,1.83
2022-07-30T14:11:18.325Z,1.55
2022-07-30T14:13:46.799Z,2.03
2022-07-30T14:16:42.437Z,1.58
2022-07-30T14:19:05.150Z,1.48
2022-07-30T14:21:36.552Z,1.60
2022-07-30T14:24:08.135Z,1.50
2022-07-30T14:26:37.853Z,2.00
2022-07-30T14:29:06.494Z,1.70
2022-07-30T14:31:36.944Z,1.92
2022-07-30T14:34:06.030Z,1.60
2022-07-30T14:36:34.340Z,1.60
2022-07-30T14:39:04.218Z,1.88
2022-07-30T14:41:33.355Z,1.60
2022-07-30T14:44:03.017Z,1.40
2022-07-30T14:46:31.208Z,1.63
2022-07-30T14:49:00.686Z,1.60
2022-07-30T14:51:33.686Z,1.50
2022-07-30T14:54:02.840Z,1.73
2022-07-30T14:56:34.432Z,1.50
2022-07-30T14:59:04.026Z,1.27
2022-07-30T15:01:32.599Z,1.30
2022-07-30T15:04:04.150Z,1.05
2022-07-30T15:06:32.319Z,1.17
2022-07-30T15:09:00.567Z,1.30
2022-07-30T15:11:31.081Z,1.20
2022-07-30T15:14:04.784Z,1.60
2022-07-30T15:16:33.752Z,1.50
2022-07-30T15:19:05.054Z,1.55
2022-07-30T15:21:33.276Z,1.40
2022-07-30T15:24:03.273Z,1.75
2022-07-30T15:26:31.978Z,1.38
2022-07-30T15:29:00.170Z,1.42
2022-07-30T15:31:30.936Z,1.80
2022-07-30T15:33:59.426Z,1.20
2022-07-30T15:36:31.911Z,1.40
2022-07-30T15:39:00.091Z,1.92
2022-07-30T15:41:28.172Z,1.67
2022-07-30T15:43:56.363Z,1.77
2022-07-30T15:46:24.535Z,1.75
2022-07-30T15:48:55.087Z,1.88
2022-07-30T15:51:23.477Z,1.55
2022-07-30T15:53:53.239Z,1.70
2022-07-30T15:56:21.371Z,1.30
2022-07-30T15:58:53.216Z,1.52
2022-07-30T16:01:21.468Z,1.33
2022-07-30T16:03:49.750Z,1.77
2022-07-30T16:06:17.897Z,1.55
2022-07-30T16:08:46.174Z,1.20
2022-07-30T16:11:15.759Z,1.27
2022-07-30T16:13:43.993Z,1.30
2022-07-30T16:16:12.147Z,1.00
2022-07-30T16:18:40.491Z,1.15
2022-07-30T16:21:10.126Z,1.40
2022-07-30T16:23:38.999Z,1.55
2022-07-30T16:26:07.879Z,2.15
2022-07-30T16:28:37.391Z,1.33
2022-07-30T16:31:08.441Z,1.50
2022-07-30T16:33:37.640Z,1.30
2022-07-30T16:36:06.254Z,1.50
2022-07-30T16:38:34.479Z,1.60
2022-07-30T16:41:02.578Z,3.83
2022-07-30T16:43:31.989Z,7.07
2022-07-30T16:46:01.783Z,7.25
2022-07-30T16:48:32.624Z,7.15
2022-07-30T16:51:01.096Z,5.72
2022-07-30T16:53:29.422Z,4.78
2022-07-30T16:55:58.443Z,5.93
2022-07-30T16:58:28.352Z,7.32
2022-07-30T17:01:00.999Z,3.60
2022-07-30T17:03:29.362Z,2.97
2022-07-30T17:05:57.526Z,3.70
2022-07-30T17:08:25.782Z,2.42
2022-07-30T17:10:54.332Z,2.90
2022-07-30T17:13:25.541Z,5.53
2022-07-30T17:15:56.215Z,8.18
2022-07-30T17:18:25.711Z,8.95
2022-07-30T17:20:56.673Z,9.95
2022-07-30T17:23:24.945Z,8.90
2022-07-30T17:25:55.364Z,13.00
2022-07-30T17:28:27.157Z,17.20
2022-07-30T17:30:55.443Z,7.85
2022-07-30T17:33:25.841Z,5.45
2022-07-30T17:35:54.330Z,3.67
2022-07-30T17:38:22.530Z,2.85
2022-07-30T17:40:52.681Z,2.33
2022-07-30T17:43:20.859Z,2.47
2022-07-30T17:45:50.302Z,2.03
2022-07-30T17:48:19.127Z,2.60
2022-07-30T17:50:48.893Z,2.85
2022-07-30T17:53:17.071Z,2.20
2022-07-30T17:55:57.813Z,3.63
2022-07-30T17:58:26.927Z,3.10
2022-07-30T18:00:55.800Z,2.67
2022-07-30T18:03:24.000Z,2.25
2022-07-30T18:05:54.011Z,2.30
2022-07-30T18:08:22.082Z,2.85
2022-07-30T18:10:50.569Z,2.65
2022-07-30T18:13:26.294Z,6.80
2022-07-30T18:15:55.582Z,4.53
2022-07-30T18:18:23.771Z,2.55
2022-07-30T18:20:56.232Z,3.63
2022-07-30T18:23:24.436Z,2.67
2022-07-30T18:26:02.914Z,3.03
2022-07-30T18:28:37.040Z,3.15
2022-07-30T18:31:06.247Z,2.80
2022-07-30T18:33:34.531Z,5.85
2022-07-30T18:36:04.479Z,15.60
2022-07-30T18:38:40.439Z,7.05
2022-07-30T18:41:08.533Z,4.03
2022-07-30T18:43:48.239Z,2.92
2022-07-30T18:46:19.845Z,3.70
2022-07-30T18:48:48.732Z,3.17
2022-07-30T18:51:18.643Z,4.35
2022-07-30T18:53:46.840Z,5.00
2022-07-30T18:56:16.433Z,4.82
2022-07-30T18:58:46.850Z,3.85
2022-07-30T19:01:17.859Z,2.65
2022-07-30T19:03:46.172Z,4.75
2022-07-30T19:06:16.369Z,5.03
2022-07-30T19:08:45.924Z,3.40
2022-07-30T19:11:15.031Z,2.15
2022-07-30T19:13:43.236Z,2.90
2022-07-30T19:16:11.381Z,2.50
2022-07-30T19:18:39.465Z,2.78
2022-07-30T19:21:12.384Z,2.40
2022-07-30T19:23:42.230Z,2.63
2022-07-30T19:26:13.774Z,3.20
2022-07-30T19:28:43.133Z,3.60
2022-07-30T19:31:13.806Z,3.50
2022-07-30T19:33:44.737Z,4.30
2022-07-30T19:36:15.159Z,7.20
2022-07-30T19:38:45.200Z,5.10
2022-07-30T19:41:18.516Z,4.37
2022-07-30T19:43:58.161Z,4.87
2022-07-30T19:46:27.033Z,3.97
2022-07-30T19:48:56.968Z,4.10
2022-07-30T19:52:09.981Z,3.73
2022-07-30T19:54:15.446Z,3.30
2022-07-30T19:56:47.537Z,3.20
2022-07-30T19:59:16.145Z,3.30
2022-07-30T20:01:45.153Z,3.20
2022-07-30T20:04:20.830Z,3.67
2022-07-30T20:06:52.617Z,6.53
2022-07-30T20:09:20.807Z,7.03
2022-07-30T20:11:51.147Z,5.10
2022-07-30T20:14:22.864Z,4.33
2022-07-30T20:16:53.906Z,4.00
2022-07-30T20:19:23.771Z,3.80
2022-07-30T20:21:56.324Z,5.57
2022-07-30T20:24:26.323Z,4.17
2022-07-30T20:26:56.361Z,4.13
2022-07-30T20:29:24.791Z,3.43
2022-07-30T20:32:00.241Z,3.40
2022-07-30T20:34:30.759Z,2.70
2022-07-30T20:37:14.971Z,2.90
2022-07-30T20:39:49.258Z,4.10
2022-07-30T20:42:18.818Z,4.37
2022-07-30T20:44:50.903Z,4.50
2022-07-30T20:47:34.436Z,4.60
2022-07-30T20:50:14.370Z,4.50
2022-07-30T20:52:46.930Z,4.60
2022-07-30T20:55:17.612Z,4.43
2022-07-30T20:57:59.304Z,4.00
2022-07-30T21:00:37.655Z,3.90
2022-07-30T21:03:06.567Z,4.97
2022-07-30T21:05:43.168Z,4.57
2022-07-30T21:08:12.699Z,4.47
2022-07-30T21:10:44.844Z,4.47
2022-07-30T21:13:15.765Z,5.57
2022-07-30T21:16:01.805Z,4.70
2022-07-30T21:18:32.870Z,5.60
2022-07-30T21:21:03.002Z,4.97
2022-07-30T21:23:34.689Z,6.97
2022-07-30T21:26:10.530Z,5.40
2022-07-30T21:28:43.067Z,5.00
2022-07-30T21:31:11.345Z,4.30
2022-07-30T21:33:41.942Z,3.90
2022-07-30T21:36:11.144Z,4.37
2022-07-30T21:38:41.962Z,4.43
2022-07-30T21:41:14.100Z,4.27
2022-07-30T21:43:49.236Z,4.40
2022-07-30T21:46:24.857Z,4.10
2022-07-30T21:48:58.346Z,3.97
2022-07-30T21:51:27.689Z,4.00
2022-07-30T21:54:17.113Z,4.00
2022-07-30T21:56:58.087Z,4.17
2022-07-30T21:59:28.206Z,4.97
2022-07-30T22:01:57.884Z,5.40
2022-07-30T22:04:27.370Z,6.33
2022-07-30T22:06:55.620Z,5.73
2022-07-30T22:09:34.380Z,5.83
2022-07-30T22:12:10.014Z,5.83
2022-07-30T22:14:43.672Z,5.90
2022-07-30T22:17:23.391Z,6.47
2022-07-30T22:19:57.938Z,5.03
2022-07-30T22:22:30.153Z,4.80
2022-07-30T22:25:03.763Z,4.63
2022-07-30T22:27:40.022Z,4.57
2022-07-30T22:30:27.684Z,4.53
2022-07-30T22:32:56.172Z,4.10
2022-07-30T22:35:33.620Z,4.00
2022-07-30T22:38:03.126Z,4.50
2022-07-30T22:40:31.726Z,4.10
2022-07-30T22:43:04.170Z,4.20
2022-07-30T22:45:48.237Z,3.70
2022-07-30T22:48:20.743Z,3.73
2022-07-30T22:50:55.641Z,3.57
2022-07-30T22:54:03.171Z,3.77
2022-07-30T22:56:18.518Z,3.53
2022-07-30T22:58:48.698Z,3.30
2022-07-30T23:01:18.614Z,3.97
2022-07-30T23:03:48.984Z,4.67
2022-07-30T23:06:17.088Z,4.47
2022-07-30T23:08:51.583Z,4.47
2022-07-30T23:11:21.129Z,4.90
2022-07-30T23:13:53.743Z,4.43
2022-07-30T23:16:24.422Z,4.60
2022-07-30T23:18:55.620Z,4.70
2022-07-30T23:21:24.618Z,4.70
2022-07-30T23:23:52.821Z,4.20
2022-07-30T23:26:21.157Z,4.50
2022-07-30T23:28:49.532Z,4.70
2022-07-30T23:31:17.738Z,4.33
2022-07-30T23:33:47.307Z,4.83
2022-07-30T23:36:15.452Z,4.13
2022-07-30T23:38:43.604Z,4.20
2022-07-30T23:41:14.536Z,4.80
2022-07-30T23:43:58.082Z,5.20
2022-07-30T23:46:27.286Z,5.03
2022-07-30T23:48:56.875Z,4.87
2022-07-30T23:51:25.050Z,5.10
2022-07-30T23:54:01.778Z,5.07
2022-07-30T23:56:29.928Z,5.00
2022-07-30T23:58:58.345Z,4.87
